Time;durP1;ratioP1;P1;durP2;ratioP2;P2;SDS_P1;SDS_P2;PMS_P1;PMS_P2;Temp;Humidity;BMP_temperature;BMP_pressure;BME280_temperature;BME280_humidity;BME280_pressure;Samples;Min_cycle;Max_cycle;Signal;HPM_P1;HPM_P2
2023/01/13 00:00:15;;;;;;;32.90;23.13;;;7.10;92.00;;;;;;4987217;28;20201;-64
2023/01/13 00:02:42;;;;;;;34.27;25.30;;;7.10;92.00;;;;;;4983085;28;20229;-64
2023/01/13 00:05:10;;;;;;;37.43;24.90;;;7.10;91.90;;;;;;4984779;28;20289;-64
2023/01/13 00:07:39;;;;;;;36.07;25.53;;;7.10;92.00;;;;;;4988273;28;20530;-64
2023/01/13 00:10:10;;;;;;;35.33;24.20;;;7.10;92.00;;;;;;4981811;28;20253;-64
2023/01/13 00:12:41;;;;;;;37.57;27.43;;;7.10;92.00;;;;;;4997443;28;20647;-64
2023/01/13 00:15:09;;;;;;;36.80;27.83;;;7.10;92.10;;;;;;4986178;28;20198;-64
2023/01/13 00:17:37;;;;;;;36.07;26.63;;;7.10;92.10;;;;;;4983228;28;20200;-64
2023/01/13 00:20:05;;;;;;;35.37;22.70;;;7.10;92.00;;;;;;4982941;28;20211;-64
2023/01/13 00:22:33;;;;;;;37.00;25.73;;;7.10;92.10;;;;;;4980356;28;20584;-64
2023/01/13 00:25:03;;;;;;;36.40;25.30;;;7.10;92.10;;;;;;4985652;28;20215;-64
2023/01/13 00:27:30;;;;;;;36.00;24.47;;;7.10;92.10;;;;;;4982708;28;20197;-63
2023/01/13 00:29:57;;;;;;;35.27;25.07;;;7.10;92.10;;;;;;4983886;28;20235;-64
2023/01/13 00:32:25;;;;;;;36.27;25.93;;;7.10;92.20;;;;;;4981158;28;20532;-64
2023/01/13 00:34:52;;;;;;;42.47;27.43;;;7.10;92.20;;;;;;4980390;28;20208;-64
2023/01/13 00:37:19;;;;;;;38.90;27.77;;;7.10;92.20;;;;;;4983316;28;20209;-64
2023/01/13 00:39:46;;;;;;;42.60;28.77;;;7.10;92.20;;;;;;4978766;28;20284;-64
2023/01/13 00:44:59;;;;;;;33.00;22.97;;;7.10;92.20;;;;;;4983385;28;20216;-64
2023/01/13 00:47:26;;;;;;;42.37;26.57;;;7.10;92.30;;;;;;4984588;28;20212;-64
2023/01/13 00:49:54;;;;;;;35.57;26.77;;;7.10;92.50;;;;;;4986786;28;20197;-64
2023/01/13 00:52:21;;;;;;;36.83;25.23;;;7.10;92.20;;;;;;4985247;28;20201;-64
2023/01/13 00:54:48;;;;;;;37.60;25.67;;;7.10;92.10;;;;;;4984838;28;20197;-64
2023/01/13 00:57:15;;;;;;;39.40;25.80;;;7.10;92.10;;;;;;4989179;28;20564;-64
2023/01/13 00:59:41;;;;;;;36.47;25.27;;;7.10;92.20;;;;;;4992199;28;20207;-64
2023/01/13 01:02:08;;;;;;;37.40;26.93;;;7.10;92.20;;;;;;4987852;28;20217;-64
2023/01/13 01:04:36;;;;;;;41.87;26.40;;;7.10;92.30;;;;;;4986989;28;20625;-64
2023/01/13 01:07:03;;;;;;;41.97;26.30;;;7.10;92.40;;;;;;4988494;28;20197;-64
2023/01/13 01:09:33;;;;;;;35.93;26.27;;;7.10;92.40;;;;;;4985176;28;20213;-64
2023/01/13 01:12:00;;;;;;;35.87;25.97;;;7.10;92.40;;;;;;4987672;28;20205;-64
2023/01/13 01:14:27;;;;;;;34.60;26.07;;;7.10;92.40;;;;;;4989982;28;20224;-64
2023/01/13 01:16:54;;;;;;;37.83;24.87;;;7.10;92.40;;;;;;4984962;28;20215;-64
2023/01/13 01:19:22;;;;;;;36.40;24.67;;;7.00;92.40;;;;;;4991617;28;20231;-64
2023/01/13 01:21:49;;;;;;;37.77;25.37;;;7.10;92.50;;;;;;4983675;28;20208;-64
2023/01/13 01:24:17;;;;;;;36.30;24.93;;;7.00;92.40;;;;;;4984480;28;20236;-64
2023/01/13 01:26:44;;;;;;;43.37;26.50;;;7.00;92.50;;;;;;4987312;28;20212;-63
2023/01/13 01:29:14;;;;;;;36.77;24.10;;;7.00;92.50;;;;;;4987008;28;20326;-64
2023/01/13 01:31:41;;;;;;;33.17;22.70;;;7.00;92.60;;;;;;4988333;28;20589;-64
2023/01/13 01:34:08;;;;;;;30.27;22.83;;;7.00;92.60;;;;;;4986806;28;20218;-64
2023/01/13 01:36:35;;;;;;;32.40;24.07;;;7.00;92.70;;;;;;4986332;28;20565;-64
2023/01/13 01:39:03;;;;;;;35.83;24.20;;;7.00;92.70;;;;;;4992256;28;20724;-64
2023/01/13 01:41:33;;;;;;;41.33;23.67;;;7.00;92.60;;;;;;4982770;28;20208;-64
2023/01/13 01:44:07;;;;;;;49.67;28.83;;;7.00;92.60;;;;;;4985201;28;20232;-64
2023/01/13 01:46:38;;;;;;;36.90;24.53;;;7.00;92.50;;;;;;4987223;28;20297;-64
2023/01/13 01:49:19;;;;;;;34.63;22.77;;;7.00;92.50;;;;;;4987902;28;20583;-64
2023/01/13 01:51:55;;;;;;;41.30;24.73;;;7.00;92.60;;;;;;4997281;28;20305;-64
2023/01/13 01:54:30;;;;;;;49.53;26.40;;;7.00;92.60;;;;;;4985952;28;20292;-64
2023/01/13 01:56:58;;;;;;;40.50;24.77;;;6.90;92.60;;;;;;4987008;28;20197;-64
2023/01/13 01:59:31;;;;;;;40.13;24.13;;;7.00;92.60;;;;;;4984705;28;20295;-64
2023/01/13 02:01:58;;;;;;;37.60;23.90;;;6.90;92.60;;;;;;4988657;28;20288;-64
2023/01/13 02:04:31;;;;;;;40.07;23.87;;;7.00;92.70;;;;;;4984754;28;20552;-64
2023/01/13 02:07:00;;;;;;;31.60;22.43;;;6.90;92.70;;;;;;4988726;28;20202;-64
2023/01/13 02:09:27;;;;;;;31.60;22.80;;;6.90;92.70;;;;;;4986630;28;20197;-64
2023/01/13 02:14:41;;;;;;;30.00;21.43;;;6.80;92.70;;;;;;4984566;28;20252;-64
2023/01/13 02:17:08;;;;;;;33.10;21.87;;;6.80;92.80;;;;;;4981555;28;20212;-64
2023/01/13 02:19:56;;;;;;;31.03;21.40;;;6.80;92.80;;;;;;4987088;28;20514;-64
2023/01/13 02:23:02;;;;;;;30.87;22.03;;;6.80;92.80;;;;;;4984156;28;20211;-64
2023/01/13 02:25:38;;;;;;;28.43;20.57;;;6.80;92.90;;;;;;4986804;28;20561;-64
2023/01/13 02:31:40;;;;;;;29.20;20.67;;;6.80;92.90;;;;;;4983188;28;20189;-64
2023/01/13 02:31:43;;;;;;;30.60;22.43;;;6.80;92.90;;;;;;4988709;28;20206;-64
2023/01/13 02:34:19;;;;;;;33.43;19.80;;;6.80;92.90;;;;;;4988301;28;20599;-64
2023/01/13 02:36:52;;;;;;;29.17;21.03;;;6.80;92.90;;;;;;4985937;28;20200;-64
2023/01/13 02:39:28;;;;;;;33.63;21.47;;;6.80;92.90;;;;;;4990605;28;20201;-64
2023/01/13 02:45:12;;;;;;;29.30;20.00;;;6.80;93.00;;;;;;4983479;28;20217;-64
2023/01/13 02:47:43;;;;;;;29.97;20.30;;;6.70;93.00;;;;;;4985945;28;20241;-64
2023/01/13 02:50:17;;;;;;;28.30;20.03;;;6.70;93.00;;;;;;4985790;28;20197;-64
2023/01/13 02:52:58;;;;;;;26.83;18.83;;;6.70;93.00;;;;;;4978994;28;20243;-64
2023/01/13 02:55:31;;;;;;;24.57;18.63;;;6.70;93.00;;;;;;4984836;28;20201;-64
2023/01/13 02:58:02;;;;;;;31.17;20.93;;;6.70;93.00;;;;;;4985159;28;20204;-64
2023/01/13 03:00:32;;;;;;;28.60;20.50;;;6.70;93.00;;;;;;4994276;28;20196;-64
2023/01/13 03:03:00;;;;;;;27.57;19.50;;;6.70;93.00;;;;;;4984230;28;20218;-64
2023/01/13 03:05:29;;;;;;;29.97;20.67;;;6.70;93.10;;;;;;4981338;28;20230;-64
2023/01/13 03:08:08;;;;;;;32.03;22.60;;;6.70;93.10;;;;;;4985685;28;20204;-64
2023/01/13 03:11:02;;;;;;;28.77;21.50;;;6.70;93.10;;;;;;4982815;28;20197;-64
2023/01/13 03:14:07;;;;;;;26.77;18.40;;;6.60;93.10;;;;;;4988070;28;20235;-64
2023/01/13 03:16:58;;;;;;;33.43;19.83;;;6.60;93.20;;;;;;4984246;28;20219;-64
2023/01/13 03:19:45;;;;;;;25.10;18.33;;;6.60;93.20;;;;;;4991871;28;20215;-64
2023/01/13 03:22:33;;;;;;;29.60;21.40;;;6.50;93.00;;;;;;4982741;28;20209;-64
2023/01/13 03:25:09;;;;;;;30.00;19.53;;;6.50;93.00;;;;;;4985873;28;20665;-64
2023/01/13 03:28:02;;;;;;;30.37;21.57;;;6.40;93.10;;;;;;4985589;28;20227;-64
2023/01/13 03:30:43;;;;;;;32.17;22.33;;;6.50;93.20;;;;;;4991040;28;20200;-64
2023/01/13 03:33:16;;;;;;;32.80;22.73;;;6.40;93.20;;;;;;4987054;28;20212;-64
2023/01/13 03:35:47;;;;;;;29.33;20.90;;;6.40;93.30;;;;;;4981364;28;20201;-64
2023/01/13 03:38:24;;;;;;;30.93;21.17;;;6.40;93.40;;;;;;4984459;28;20215;-64
2023/01/13 03:40:57;;;;;;;30.50;21.57;;;6.40;93.50;;;;;;4987552;28;20217;-64
2023/01/13 03:46:30;;;;;;;30.67;22.47;;;6.40;93.50;;;;;;4985442;28;20196;-64
2023/01/13 03:49:01;;;;;;;32.30;21.53;;;6.40;93.60;;;;;;5001697;28;20212;-64
2023/01/13 03:51:32;;;;;;;33.70;21.87;;;6.40;93.60;;;;;;4985180;28;20672;-64
2023/01/13 03:54:07;;;;;;;35.23;22.07;;;6.40;93.60;;;;;;4982340;28;20248;-64
2023/01/13 03:56:48;;;;;;;29.57;21.70;;;6.40;93.60;;;;;;4985509;28;20223;-64
2023/01/13 03:59:25;;;;;;;30.57;21.10;;;6.40;93.80;;;;;;4988974;28;20209;-64
2023/01/13 04:01:58;;;;;;;37.13;21.33;;;6.30;93.50;;;;;;4986213;28;20582;-64
2023/01/13 04:04:33;;;;;;;32.30;22.73;;;6.30;93.50;;;;;;4986602;28;20744;-64
2023/01/13 04:07:22;;;;;;;33.97;23.17;;;6.30;93.70;;;;;;4985003;28;20520;-64
2023/01/13 04:09:54;;;;;;;31.80;22.57;;;6.30;93.80;;;;;;4986102;28;20197;-64
2023/01/13 04:15:17;;;;;;;31.93;20.43;;;6.30;93.80;;;;;;4982220;28;20201;-64
2023/01/13 04:17:44;;;;;;;28.93;21.27;;;6.30;93.80;;;;;;4986094;28;20291;-64
2023/01/13 04:20:12;;;;;;;27.07;20.27;;;6.30;94.10;;;;;;4982757;28;20205;-64
2023/01/13 04:22:38;;;;;;;28.87;20.37;;;6.30;93.80;;;;;;4980617;28;20208;-64
2023/01/13 04:25:06;;;;;;;32.53;21.27;;;6.30;93.80;;;;;;4983416;28;20291;-64
2023/01/13 04:27:33;;;;;;;32.47;20.43;;;6.40;93.90;;;;;;4985310;28;20268;-64
2023/01/13 04:30:00;;;;;;;28.80;19.10;;;6.30;93.70;;;;;;4984912;28;20601;-64
2023/01/13 04:32:27;;;;;;;30.67;19.17;;;6.30;93.60;;;;;;4984548;28;20192;-64
2023/01/13 04:34:54;;;;;;;24.37;18.10;;;6.20;93.50;;;;;;4976171;28;20197;-64
2023/01/13 04:37:21;;;;;;;26.57;18.30;;;6.20;93.70;;;;;;4982874;28;20665;-64
2023/01/13 04:39:48;;;;;;;27.97;21.03;;;6.20;93.80;;;;;;4988303;28;20196;-65
2023/01/13 04:42:15;;;;;;;26.77;21.00;;;6.20;93.90;;;;;;4986089;28;20219;-64
2023/01/13 04:44:42;;;;;;;36.57;22.07;;;6.20;94.00;;;;;;4986583;28;20216;-64
2023/01/13 04:47:09;;;;;;;30.20;20.27;;;6.20;94.00;;;;;;4979875;28;20205;-64
2023/01/13 04:49:36;;;;;;;31.10;20.47;;;6.20;94.00;;;;;;4982826;28;20216;-64
2023/01/13 04:52:05;;;;;;;29.20;19.13;;;6.20;94.00;;;;;;4978110;28;20209;-64
2023/01/13 04:54:32;;;;;;;27.80;19.03;;;6.20;94.10;;;;;;4986008;28;20753;-64
2023/01/13 04:56:59;;;;;;;30.57;21.03;;;6.20;94.10;;;;;;4983520;28;20709;-64
2023/01/13 04:59:27;;;;;;;34.20;20.13;;;6.20;94.10;;;;;;4981293;28;20208;-64
2023/01/13 05:01:54;;;;;;;27.53;20.07;;;6.20;94.10;;;;;;4986243;28;20208;-64
2023/01/13 05:04:21;;;;;;;24.43;18.43;;;6.20;94.10;;;;;;4976661;28;20227;-64
2023/01/13 05:06:48;;;;;;;28.07;19.03;;;6.20;94.10;;;;;;4984472;28;20223;-64
2023/01/13 05:09:15;;;;;;;27.73;19.20;;;6.10;94.00;;;;;;4983433;28;20260;-64
2023/01/13 05:17:31;;;;;;;30.37;20.10;;;6.10;94.10;;;;;;4982775;28;20285;-64
2023/01/13 05:19:58;;;;;;;36.30;21.37;;;6.10;94.10;;;;;;4980558;28;20669;-64
2023/01/13 05:25:20;;;;;;;29.47;20.53;;;6.10;94.20;;;;;;4984623;28;20221;-64
2023/01/13 05:27:57;;;;;;;32.53;21.73;;;6.10;94.20;;;;;;4986073;28;20203;-64
2023/01/13 05:30:26;;;;;;;29.97;20.53;;;6.10;94.20;;;;;;4986278;28;20203;-64
2023/01/13 05:32:54;;;;;;;35.57;21.77;;;6.10;94.20;;;;;;4982805;28;20201;-64
2023/01/13 05:35:21;;;;;;;31.33;21.30;;;6.10;94.20;;;;;;4984198;28;20696;-64
2023/01/13 05:37:48;;;;;;;28.43;20.73;;;6.10;94.30;;;;;;4988406;28;20280;-64
2023/01/13 05:43:23;;;;;;;28.33;19.30;;;6.10;94.30;;;;;;4989464;28;20204;-64
2023/01/13 05:45:58;;;;;;;30.80;20.73;;;6.00;94.30;;;;;;4986641;28;20546;-64
2023/01/13 05:48:28;;;;;;;26.27;18.17;;;6.10;94.40;;;;;;4988954;28;20271;-64
2023/01/13 05:50:55;;;;;;;27.50;19.43;;;6.00;94.30;;;;;;4985702;28;20207;-64
2023/01/13 05:53:23;;;;;;;27.90;19.57;;;6.10;94.20;;;;;;4984618;28;20294;-64
2023/01/13 05:55:51;;;;;;;29.53;21.13;;;6.10;94.20;;;;;;4987986;28;20204;-64
2023/01/13 05:58:20;;;;;;;31.67;21.00;;;6.10;94.20;;;;;;4988438;28;20676;-64
2023/01/13 06:00:47;;;;;;;29.10;22.53;;;6.10;94.20;;;;;;4988189;28;20215;-64
2023/01/13 06:03:15;;;;;;;30.93;21.20;;;6.10;94.20;;;;;;4985967;28;20560;-64
2023/01/13 06:05:42;;;;;;;32.80;21.70;;;6.10;94.30;;;;;;4984559;28;20311;-64
2023/01/13 06:08:09;;;;;;;34.43;22.30;;;6.10;94.30;;;;;;4986793;28;20197;-64
2023/01/13 06:10:36;;;;;;;31.80;22.00;;;6.10;94.40;;;;;;4987765;28;20196;-64
2023/01/13 06:13:04;;;;;;;39.23;23.40;;;6.10;94.40;;;;;;4987331;28;20523;-64
2023/01/13 06:15:31;;;;;;;35.40;24.10;;;6.10;94.40;;;;;;4986315;28;20208;-64
2023/01/13 06:18:01;;;;;;;29.90;21.37;;;6.10;94.50;;;;;;4987849;28;20208;-64
2023/01/13 06:20:28;;;;;;;33.80;22.57;;;6.10;94.50;;;;;;4982025;28;20215;-64
2023/01/13 06:22:56;;;;;;;30.90;21.83;;;6.10;94.50;;;;;;4986179;28;20208;-64
2023/01/13 06:25:54;;;;;;;30.23;20.63;;;6.10;94.50;;;;;;4987542;28;20219;-64
2023/01/13 06:28:21;;;;;;;34.87;23.77;;;6.10;94.50;;;;;;4988692;28;20205;-64
2023/01/13 06:30:51;;;;;;;36.00;25.33;;;6.10;94.50;;;;;;4988902;28;20201;-64
2023/01/13 06:33:24;;;;;;;42.00;27.03;;;6.10;94.50;;;;;;4981003;28;20287;-64
2023/01/13 06:35:55;;;;;;;40.27;26.97;;;6.10;94.50;;;;;;4986501;28;20211;-64
2023/01/13 06:38:25;;;;;;;37.90;27.37;;;6.10;94.60;;;;;;4991433;28;20212;-64
2023/01/13 06:40:53;;;;;;;40.73;27.40;;;6.10;94.60;;;;;;4987604;28;20208;-64
2023/01/13 06:43:20;;;;;;;42.07;27.23;;;6.10;94.60;;;;;;4987424;28;20727;-64
2023/01/13 06:45:51;;;;;;;40.63;26.73;;;6.20;94.70;;;;;;4983532;28;20224;-64
2023/01/13 06:48:33;;;;;;;44.87;27.60;;;6.10;94.70;;;;;;4988771;28;20203;-64
2023/01/13 06:51:02;;;;;;;43.27;28.70;;;6.20;94.80;;;;;;4986777;28;20235;-64
2023/01/13 06:53:30;;;;;;;39.30;26.57;;;6.20;94.70;;;;;;4988851;28;20236;-64
2023/01/13 06:55:57;;;;;;;38.83;27.47;;;6.20;94.80;;;;;;4987237;28;20199;-64
2023/01/13 06:58:24;;;;;;;40.73;26.73;;;6.20;94.80;;;;;;4986933;28;20525;-64
2023/01/13 07:00:51;;;;;;;48.83;27.90;;;6.20;94.70;;;;;;4987294;28;20228;-64
2023/01/13 07:03:18;;;;;;;44.63;29.03;;;6.20;94.70;;;;;;4983693;28;20264;-64
2023/01/13 07:05:54;;;;;;;43.87;28.60;;;6.20;94.70;;;;;;4985406;28;20221;-64
2023/01/13 07:08:22;;;;;;;48.10;30.43;;;6.20;94.80;;;;;;4986257;28;20576;-64
2023/01/13 07:10:50;;;;;;;44.40;29.87;;;6.20;94.80;;;;;;4983142;28;20219;-64
2023/01/13 07:16:06;;;;;;;43.37;28.77;;;6.30;94.90;;;;;;4981925;28;20217;-64
2023/01/13 07:18:34;;;;;;;47.23;28.17;;;6.20;94.80;;;;;;4984360;28;20607;-64
2023/01/13 07:21:07;;;;;;;45.10;28.40;;;6.30;94.80;;;;;;4982543;28;20227;-63
2023/01/13 07:23:38;;;;;;;46.07;26.83;;;6.30;94.80;;;;;;4983756;28;20224;-63
2023/01/13 07:26:07;;;;;;;46.50;28.30;;;6.30;94.80;;;;;;4988241;28;20664;-64
2023/01/13 07:28:34;;;;;;;39.33;26.80;;;6.30;94.70;;;;;;4984786;28;20201;-64
2023/01/13 07:31:01;;;;;;;36.27;26.07;;;6.30;94.70;;;;;;4987106;28;20236;-64
2023/01/13 07:33:32;;;;;;;40.97;25.80;;;6.30;94.70;;;;;;4979392;28;20228;-64
2023/01/13 07:36:03;;;;;;;38.50;25.57;;;6.30;94.70;;;;;;4988445;28;20290;-64
2023/01/13 07:38:31;;;;;;;35.97;25.07;;;6.30;94.70;;;;;;4989990;28;20249;-64
2023/01/13 07:43:30;;;;;;;42.10;26.07;;;6.30;94.70;;;;;;4982939;28;20208;-64
2023/01/13 07:43:50;;;;;;;32.70;23.53;;;6.30;94.70;;;;;;4987081;28;20641;-64
2023/01/13 07:46:18;;;;;;;38.00;24.87;;;6.30;94.70;;;;;;4982641;28;20225;-64
2023/01/13 07:48:47;;;;;;;39.40;24.90;;;6.30;94.70;;;;;;4986105;28;20204;-64
2023/01/13 07:51:14;;;;;;;42.63;27.03;;;6.40;94.80;;;;;;4987283;28;20530;-64
2023/01/13 07:53:41;;;;;;;48.07;27.33;;;6.40;94.80;;;;;;4982270;28;20248;-64
2023/01/13 07:56:09;;;;;;;40.37;28.07;;;6.50;94.80;;;;;;4982283;28;20212;-64
2023/01/13 07:58:37;;;;;;;44.47;27.87;;;6.50;94.80;;;;;;4983288;28;20298;-64
2023/01/13 08:01:11;;;;;;;46.40;27.33;;;6.50;94.80;;;;;;4985356;28;20204;-64
2023/01/13 08:03:39;;;;;;;39.00;27.33;;;6.50;94.80;;;;;;4986751;28;20202;-64
2023/01/13 08:06:08;;;;;;;39.53;28.53;;;6.60;94.80;;;;;;4981991;28;20209;-64
2023/01/13 08:08:36;;;;;;;43.20;29.03;;;6.60;94.80;;;;;;4982960;28;20647;-63
2023/01/13 08:11:05;;;;;;;48.83;30.37;;;6.60;94.80;;;;;;4984777;28;20208;-62
2023/01/13 08:13:32;;;;;;;56.33;35.37;;;6.70;94.80;;;;;;4983747;28;20196;-63
2023/01/13 08:16:02;;;;;;;61.33;35.70;;;6.70;94.80;;;;;;4982699;28;20216;-62
2023/01/13 08:18:30;;;;;;;54.77;31.97;;;6.80;94.80;;;;;;4983836;28;20201;-62
2023/01/13 08:21:02;;;;;;;41.00;27.83;;;6.80;94.70;;;;;;4980846;28;20198;-63
2023/01/13 08:23:29;;;;;;;40.57;27.57;;;6.80;94.70;;;;;;4985003;28;20209;-62
2023/01/13 08:26:01;;;;;;;40.37;26.43;;;6.90;94.70;;;;;;4984807;28;20209;-63
2023/01/13 08:28:30;;;;;;;41.80;27.17;;;6.90;94.60;;;;;;4981758;28;20201;-64
2023/01/13 08:31:01;;;;;;;37.70;26.77;;;6.90;94.60;;;;;;4984234;28;20283;-62
2023/01/13 08:33:29;;;;;;;37.17;27.03;;;7.00;94.60;;;;;;4981723;28;20197;-62
2023/01/13 08:35:57;;;;;;;41.97;28.87;;;7.00;94.50;;;;;;4983316;28;20213;-64
2023/01/13 08:38:24;;;;;;;37.67;27.47;;;7.10;94.60;;;;;;4988458;28;20214;-62
2023/01/13 08:40:51;;;;;;;42.43;28.70;;;7.10;94.50;;;;;;4986826;28;20258;-61
2023/01/13 08:43:18;;;;;;;42.00;28.37;;;7.20;94.40;;;;;;4984019;28;20206;-62
2023/01/13 08:45:58;;;;;;;39.03;26.57;;;7.20;94.40;;;;;;4979507;28;20213;-63
2023/01/13 08:48:27;;;;;;;42.60;28.70;;;7.30;94.30;;;;;;4985175;28;20197;-62
2023/01/13 08:51:05;;;;;;;40.23;26.77;;;7.30;94.20;;;;;;4983573;28;20209;-62
2023/01/13 08:53:33;;;;;;;39.50;27.97;;;7.30;94.10;;;;;;4982479;28;20553;-63
2023/01/13 08:56:00;;;;;;;38.77;28.43;;;7.40;94.10;;;;;;4985105;28;20214;-63
2023/01/13 08:58:27;;;;;;;39.93;27.90;;;7.40;94.00;;;;;;4983553;28;20239;-62
2023/01/13 09:00:54;;;;;;;38.40;27.17;;;7.50;94.00;;;;;;4983058;28;20212;-63
2023/01/13 09:03:21;;;;;;;38.23;28.37;;;7.50;93.90;;;;;;4983913;28;20200;-64
2023/01/13 09:05:48;;;;;;;42.00;28.77;;;7.50;93.80;;;;;;4986728;28;20229;-63
2023/01/13 09:08:15;;;;;;;41.70;28.27;;;7.60;93.70;;;;;;4990520;28;20200;-63
2023/01/13 09:10:42;;;;;;;40.73;27.70;;;7.60;93.60;;;;;;4987951;28;20208;-63
2023/01/13 09:13:12;;;;;;;41.33;27.17;;;7.70;93.70;;;;;;4989251;28;20225;-64
2023/01/13 09:15:41;;;;;;;43.27;28.37;;;7.80;93.70;;;;;;4988228;28;20232;-63
2023/01/13 09:18:09;;;;;;;39.17;28.47;;;7.90;93.70;;;;;;4995328;28;20585;-64
2023/01/13 09:20:36;;;;;;;39.87;29.97;;;8.00;93.70;;;;;;4985565;28;20260;-62
2023/01/13 09:23:04;;;;;;;58.10;30.30;;;8.10;93.70;;;;;;4989613;28;20520;-64
2023/01/13 09:25:35;;;;;;;40.47;28.30;;;8.20;93.70;;;;;;4986430;28;20279;-62
2023/01/13 09:28:03;;;;;;;41.17;29.50;;;8.30;93.50;;;;;;4985486;28;20209;-64
2023/01/13 09:30:31;;;;;;;36.77;27.70;;;8.40;93.30;;;;;;4987394;28;20220;-63
2023/01/13 09:35:44;;;;;;;42.73;30.23;;;8.60;93.10;;;;;;4984835;28;20290;-62
2023/01/13 09:38:11;;;;;;;41.93;29.10;;;8.70;92.90;;;;;;4993133;28;20208;-64
2023/01/13 09:40:40;;;;;;;36.13;27.77;;;8.70;92.60;;;;;;4990482;28;20654;-63
2023/01/13 09:46:45;;;;;;;41.47;30.27;;;8.80;91.90;;;;;;4989309;28;20730;-63
2023/01/13 09:49:20;;;;;;;42.17;29.40;;;8.80;91.70;;;;;;4986232;28;20203;-63
2023/01/13 09:52:01;;;;;;;45.43;30.03;;;8.90;91.70;;;;;;4982351;28;20202;-64
2023/01/13 09:54:41;;;;;;;44.93;29.50;;;9.00;91.80;;;;;;4987409;28;20247;-62
2023/01/13 09:57:14;;;;;;;46.23;32.47;;;9.10;91.70;;;;;;4983508;28;20205;-62
2023/01/13 09:59:42;;;;;;;43.17;31.33;;;9.30;91.70;;;;;;4985011;28;20209;-64
2023/01/13 10:02:28;;;;;;;45.97;33.13;;;9.40;91.60;;;;;;4983318;28;20278;-63
2023/01/13 10:05:14;;;;;;;41.83;32.53;;;9.60;91.40;;;;;;4986091;28;20667;-62
2023/01/13 10:07:51;;;;;;;42.07;31.57;;;9.70;91.10;;;;;;4991451;28;20226;-63
2023/01/13 10:10:32;;;;;;;43.23;31.57;;;9.90;90.90;;;;;;4986332;28;20647;-63
2023/01/13 10:13:18;;;;;;;42.23;31.73;;;10.00;90.40;;;;;;4985883;28;20202;-62
2023/01/13 10:15:54;;;;;;;39.83;30.80;;;10.00;90.00;;;;;;4982900;28;20203;-62
2023/01/13 10:18:35;;;;;;;44.13;31.20;;;10.10;89.70;;;;;;5001669;28;20234;-63
2023/01/13 10:21:05;;;;;;;46.73;33.90;;;10.10;89.40;;;;;;4981691;28;20214;-62
2023/01/13 10:24:29;;;;;;;44.53;31.30;;;10.20;88.90;;;;;;4984458;28;20601;-62
2023/01/13 10:26:58;;;;;;;41.50;29.83;;;10.20;88.20;;;;;;4982948;28;20693;-64
2023/01/13 10:29:27;;;;;;;43.67;31.40;;;10.20;87.80;;;;;;4991201;28;20208;-62
2023/01/13 10:31:56;;;;;;;41.10;30.73;;;10.10;86.70;;;;;;4985625;28;20297;-61
2023/01/13 10:34:25;;;;;;;43.50;33.40;;;10.10;86.90;;;;;;4984643;28;20218;-63
2023/01/13 10:37:10;;;;;;;40.40;31.00;;;10.10;87.20;;;;;;4987488;28;20653;-62
2023/01/13 10:39:46;;;;;;;41.43;31.40;;;10.10;87.10;;;;;;5002437;28;20213;-63
2023/01/13 10:42:15;;;;;;;41.97;32.83;;;10.10;86.90;;;;;;5003104;28;20211;-63
2023/01/13 10:44:52;;;;;;;41.93;32.07;;;10.10;86.60;;;;;;4980904;28;20200;-63
2023/01/13 10:47:31;;;;;;;39.63;30.23;;;10.00;86.70;;;;;;4984082;28;20202;-63
2023/01/13 10:50:01;;;;;;;42.47;31.33;;;10.00;86.40;;;;;;4983187;28;20202;-62
2023/01/13 10:52:31;;;;;;;43.67;32.23;;;10.00;86.40;;;;;;4989158;28;20201;-63
2023/01/13 10:54:59;;;;;;;47.60;32.30;;;10.00;86.70;;;;;;4986173;28;20198;-62
2023/01/13 10:57:27;;;;;;;52.93;35.87;;;10.00;87.70;;;;;;4997634;28;20208;-63
2023/01/13 10:59:55;;;;;;;49.93;37.40;;;10.10;86.70;;;;;;4986334;28;20703;-64
2023/01/13 11:02:30;;;;;;;53.43;36.70;;;10.10;86.50;;;;;;4984868;28;20205;-63
2023/01/13 11:05:23;;;;;;;50.53;35.53;;;10.10;87.00;;;;;;4985309;28;20599;-62
2023/01/13 11:07:53;;;;;;;41.90;33.77;;;10.10;87.00;;;;;;4987349;28;20211;-63
2023/01/13 11:10:26;;;;;;;45.73;34.23;;;10.20;86.80;;;;;;4986942;28;20301;-63
2023/01/13 11:13:02;;;;;;;44.07;33.63;;;10.20;86.80;;;;;;4990563;28;20203;-64
2023/01/13 11:15:46;;;;;;;47.27;34.57;;;10.20;86.90;;;;;;4984636;28;20631;-62
2023/01/13 11:19:10;;;;;;;43.23;33.27;;;10.30;87.00;;;;;;4980064;28;20258;-63
2023/01/13 11:21:46;;;;;;;44.47;33.37;;;10.30;86.90;;;;;;4982612;28;20212;-62
2023/01/13 11:24:40;;;;;;;43.33;33.10;;;10.40;86.60;;;;;;4982754;28;20634;-62
2023/01/13 11:27:12;;;;;;;43.23;33.20;;;10.40;86.60;;;;;;4982663;28;20278;-62
2023/01/13 11:30:08;;;;;;;40.03;31.73;;;10.40;86.30;;;;;;4983954;28;20285;-63
2023/01/13 11:33:13;;;;;;;44.07;32.23;;;10.40;86.10;;;;;;4980869;28;20224;-63
2023/01/13 11:35:55;;;;;;;41.43;31.60;;;10.30;86.00;;;;;;4985204;28;20595;-63
2023/01/13 11:38:37;;;;;;;40.77;33.17;;;10.40;86.20;;;;;;4988796;28;20214;-64
2023/01/13 11:41:23;;;;;;;41.30;33.23;;;10.40;86.30;;;;;;4985187;28;20214;-63
2023/01/13 11:44:03;;;;;;;40.97;32.57;;;10.40;86.50;;;;;;4985025;28;20201;-63
2023/01/13 11:46:31;;;;;;;41.83;33.23;;;10.40;86.50;;;;;;4987133;28;20223;-63
2023/01/13 11:48:59;;;;;;;45.33;33.97;;;10.40;86.50;;;;;;4985246;28;20254;-64
2023/01/13 11:51:39;;;;;;;43.00;33.30;;;10.40;86.70;;;;;;4987469;28;20218;-64
2023/01/13 11:54:12;;;;;;;41.70;33.03;;;10.40;86.60;;;;;;4980493;28;20585;-64
2023/01/13 11:56:42;;;;;;;42.10;32.53;;;10.40;86.60;;;;;;4980055;28;20201;-64
2023/01/13 11:59:40;;;;;;;44.43;34.60;;;10.40;86.30;;;;;;4984280;28;20215;-63
2023/01/13 12:02:50;;;;;;;41.50;32.97;;;10.40;85.50;;;;;;4982265;28;20212;-63
2023/01/13 12:05:39;;;;;;;47.00;34.53;;;10.40;85.90;;;;;;4983331;28;20224;-62
2023/01/13 12:08:22;;;;;;;44.50;34.83;;;10.30;86.10;;;;;;4990308;28;20626;-63
2023/01/13 12:11:04;;;;;;;43.87;35.27;;;10.30;86.20;;;;;;4985404;28;20639;-64
2023/01/13 12:13:58;;;;;;;45.70;35.73;;;10.30;86.50;;;;;;4981895;28;20199;-64
2023/01/13 12:16:27;;;;;;;43.07;33.90;;;10.30;86.70;;;;;;4979883;28;20256;-64
2023/01/13 12:19:29;;;;;;;45.60;34.13;;;10.30;86.50;;;;;;4982269;28;20219;-64
2023/01/13 12:22:03;;;;;;;40.93;32.33;;;10.30;86.20;;;;;;4982126;28;20264;-64
2023/01/13 12:24:45;;;;;;;43.13;32.03;;;10.30;85.90;;;;;;4985885;28;20236;-64
2023/01/13 12:27:36;;;;;;;45.67;33.10;;;10.30;85.90;;;;;;4987056;28;20220;-64
2023/01/13 12:30:27;;;;;;;44.77;34.37;;;10.30;85.90;;;;;;4984923;28;20206;-64
2023/01/13 12:33:01;;;;;;;47.23;35.37;;;10.20;85.80;;;;;;4984493;28;20206;-64
2023/01/13 12:35:38;;;;;;;45.37;33.10;;;10.20;85.60;;;;;;4986670;28;20609;-64
2023/01/13 12:38:23;;;;;;;42.30;34.50;;;10.20;85.40;;;;;;4988935;28;20200;-64
2023/01/13 12:41:10;;;;;;;45.70;34.77;;;10.20;85.70;;;;;;4985163;28;20202;-64
2023/01/13 12:46:27;;;;;;;42.47;35.33;;;10.20;86.20;;;;;;4992777;28;20214;-64
2023/01/13 12:48:55;;;;;;;46.47;36.30;;;10.30;86.40;;;;;;4993835;28;20199;-64
2023/01/13 12:51:26;;;;;;;49.20;35.63;;;10.40;86.60;;;;;;4990927;28;20217;-64
2023/01/13 12:53:55;;;;;;;46.13;34.83;;;10.40;86.40;;;;;;4991776;28;20249;-64
2023/01/13 12:56:31;;;;;;;45.87;34.87;;;10.50;86.40;;;;;;4991358;28;20229;-64
2023/01/13 12:59:15;;;;;;;43.47;34.83;;;10.50;86.40;;;;;;4993398;28;20302;-64
2023/01/13 13:01:47;;;;;;;44.20;34.43;;;10.60;86.10;;;;;;4985975;28;20207;-64
2023/01/13 13:04:20;;;;;;;47.00;36.80;;;10.60;85.50;;;;;;4991223;28;20294;-64
2023/01/13 13:07:07;;;;;;;50.10;36.07;;;10.60;85.30;;;;;;4995245;28;20256;-64
2023/01/13 13:09:46;;;;;;;53.07;38.80;;;10.60;85.00;;;;;;4992592;28;20526;-64
2023/01/13 13:15:26;;;;;;;54.30;42.77;;;10.60;85.30;;;;;;4989829;28;20211;-64
2023/01/13 13:18:02;;;;;;;56.33;42.37;;;10.60;85.80;;;;;;4988246;28;20199;-64
2023/01/13 13:20:52;;;;;;;54.40;43.20;;;10.50;86.20;;;;;;4984134;28;20287;-64
2023/01/13 13:23:32;;;;;;;61.57;43.50;;;10.50;86.30;;;;;;4987939;28;20197;-64
2023/01/13 13:26:10;;;;;;;56.33;44.23;;;10.50;86.50;;;;;;4986445;28;20309;-63
2023/01/13 13:28:47;;;;;;;56.00;43.50;;;10.50;86.80;;;;;;4990908;28;20653;-64
2023/01/13 13:31:16;;;;;;;59.53;43.43;;;10.60;87.10;;;;;;4985310;28;20538;-64
2023/01/13 13:33:57;;;;;;;58.70;41.60;;;10.60;87.10;;;;;;4988276;28;20195;-66
2023/01/13 13:37:08;;;;;;;57.73;43.43;;;10.60;86.90;;;;;;4992992;28;20282;-61
2023/01/13 13:48:27;;;;;;;52.43;38.37;;;10.60;87.30;;;;;;4991730;28;20287;-62
2023/01/13 13:51:00;;;;;;;52.07;39.73;;;10.60;86.30;;;;;;4986469;28;20206;-64
2023/01/13 13:53:34;;;;;;;53.77;38.83;;;10.60;86.00;;;;;;4991056;28;20266;-62